Time;durP1;ratioP1;P1;durP2;ratioP2;P2;SDS_P1;SDS_P2;PMS_P1;PMS_P2;Temp;Humidity;BMP_temperature;BMP_pressure;BME280_temperature;BME280_humidity;BME280_pressure;Samples;Min_cycle;Max_cycle;Signal;HPM_P1;HPM_P2
2021/11/10 00:00:08;;;;;;;21.80;6.13;;;;;;;;;;5001888;28;20524;-76
2021/11/10 00:02:34;;;;;;;14.10;5.53;;;;;;;;;;5003378;28;20190;-75
2021/11/10 00:04:59;;;;;;;15.43;5.60;;;;;;;;;;5002752;28;20472;-77
2021/11/10 00:07:24;;;;;;;17.80;7.33;;;;;;;;;;5001144;28;20212;-76
2021/11/10 00:09:49;;;;;;;16.17;5.53;;;;;;;;;;4999305;28;20192;-76
2021/11/10 00:12:15;;;;;;;20.13;6.57;;;;;;;;;;5001706;28;20704;-75
2021/11/10 00:14:40;;;;;;;20.03;6.60;;;;;;;;;;5002127;28;20557;-76
2021/11/10 00:17:05;;;;;;;17.03;6.47;;;;;;;;;;5001541;28;20185;-75
2021/11/10 00:19:30;;;;;;;22.53;6.43;;;;;;;;;;5016461;28;20190;-75
2021/11/10 00:21:56;;;;;;;12.40;6.13;;;;;;;;;;5001371;28;20195;-76
2021/11/10 00:24:21;;;;;;;21.40;7.40;;;;;;;;;;4999095;28;20205;-76
2021/11/10 00:26:46;;;;;;;17.83;6.97;;;;;;;;;;4999468;28;20526;-75
2021/11/10 00:29:11;;;;;;;18.77;7.10;;;;;;;;;;5000836;28;20189;-75
2021/11/10 00:31:37;;;;;;;21.60;6.70;;;;;;;;;;4999692;28;20208;-75
2021/11/10 00:34:05;;;;;;;20.33;7.10;;;;;;;;;;5000412;28;20760;-75
2021/11/10 00:36:30;;;;;;;19.03;6.77;;;;;;;;;;5000670;28;20181;-75
2021/11/10 00:38:57;;;;;;;19.93;8.37;;;;;;;;;;4999474;28;20435;-75
2021/11/10 00:41:23;;;;;;;21.63;7.33;;;;;;;;;;4998912;28;20597;-75
2021/11/10 00:43:48;;;;;;;18.20;7.40;;;;;;;;;;4997771;28;20464;-76
2021/11/10 00:46:13;;;;;;;24.93;9.20;;;;;;;;;;4999061;28;20224;-75
2021/11/10 00:48:38;;;;;;;24.40;7.50;;;;;;;;;;5000182;28;20209;-75
2021/11/10 00:51:04;;;;;;;17.23;6.50;;;;;;;;;;5000124;28;20188;-75
2021/11/10 00:53:29;;;;;;;20.73;7.40;;;;;;;;;;4995506;28;20182;-76
2021/11/10 00:55:54;;;;;;;18.07;8.53;;;;;;;;;;4999356;28;20287;-75
2021/11/10 00:58:19;;;;;;;27.80;9.03;;;;;;;;;;5000286;28;20181;-75
2021/11/10 01:00:45;;;;;;;15.93;7.77;;;;;;;;;;4997666;28;20213;-75
2021/11/10 01:03:10;;;;;;;23.03;7.30;;;;;;;;;;4999039;28;20217;-78
2021/11/10 01:05:36;;;;;;;18.03;7.70;;;;;;;;;;4993534;28;20229;-76
2021/11/10 01:08:02;;;;;;;16.37;7.70;;;;;;;;;;4997774;28;20205;-76
2021/11/10 01:10:28;;;;;;;22.40;8.50;;;;;;;;;;4998453;28;20195;-75
2021/11/10 01:12:53;;;;;;;16.17;7.90;;;;;;;;;;4996853;28;20436;-75
2021/11/10 01:15:19;;;;;;;13.10;8.20;;;;;;;;;;5000521;28;20189;-75
2021/11/10 01:17:44;;;;;;;20.47;8.20;;;;;;;;;;5000389;28;20180;-75
2021/11/10 01:20:10;;;;;;;21.20;9.10;;;;;;;;;;5000137;28;20528;-74
2021/11/10 01:22:36;;;;;;;18.00;8.17;;;;;;;;;;4997232;28;20209;-74
2021/11/10 01:25:02;;;;;;;20.33;8.40;;;;;;;;;;4997605;28;20511;-74
2021/11/10 01:27:27;;;;;;;18.43;8.23;;;;;;;;;;4997754;28;22735;-76
2021/11/10 01:29:52;;;;;;;19.37;8.60;;;;;;;;;;4999789;28;20432;-74
2021/11/10 01:32:18;;;;;;;14.67;7.73;;;;;;;;;;4996290;28;21171;-75
2021/11/10 01:34:43;;;;;;;15.00;7.63;;;;;;;;;;4998476;28;20202;-75
2021/11/10 01:37:08;;;;;;;15.33;8.30;;;;;;;;;;4996834;28;20189;-75
2021/11/10 01:39:36;;;;;;;21.07;9.20;;;;;;;;;;5000761;28;20212;-75
2021/11/10 01:42:03;;;;;;;20.80;8.30;;;;;;;;;;4997118;28;20656;-76
2021/11/10 01:44:30;;;;;;;26.57;9.13;;;;;;;;;;5004945;28;20508;-75
2021/11/10 01:46:57;;;;;;;21.97;7.97;;;;;;;;;;5001124;28;20435;-74
2021/11/10 01:49:22;;;;;;;21.20;9.60;;;;;;;;;;4998331;28;20983;-74
2021/11/10 01:51:50;;;;;;;19.27;10.23;;;;;;;;;;4997093;28;20531;-75
2021/11/10 01:54:16;;;;;;;27.40;8.50;;;;;;;;;;4998827;28;20173;-75
2021/11/10 01:56:41;;;;;;;17.47;8.07;;;;;;;;;;4998038;28;20480;-75
2021/11/10 01:59:07;;;;;;;19.67;8.83;;;;;;;;;;5003449;28;20519;-75
2021/11/10 02:01:32;;;;;;;23.67;10.87;;;;;;;;;;5002798;28;20247;-75
2021/11/10 02:03:58;;;;;;;26.07;11.57;;;;;;;;;;5003979;28;20272;-74
2021/11/10 02:06:23;;;;;;;19.00;9.90;;;;;;;;;;5003499;28;20783;-75
2021/11/10 02:08:49;;;;;;;22.37;10.63;;;;;;;;;;5003959;28;20200;-76
2021/11/10 02:11:14;;;;;;;23.53;10.93;;;;;;;;;;5003826;28;20177;-75
2021/11/10 02:13:40;;;;;;;22.03;11.33;;;;;;;;;;5009948;28;20186;-75
2021/11/10 02:16:05;;;;;;;27.43;11.63;;;;;;;;;;5002181;28;20204;-75
2021/11/10 02:18:30;;;;;;;19.13;10.07;;;;;;;;;;5002816;28;20455;-74
2021/11/10 02:20:56;;;;;;;24.90;10.80;;;;;;;;;;5001099;28;20184;-75
2021/11/10 02:23:21;;;;;;;22.40;12.53;;;;;;;;;;5003245;28;20267;-73
2021/11/10 02:25:46;;;;;;;22.27;11.77;;;;;;;;;;5003889;28;20599;-75
2021/11/10 02:28:11;;;;;;;24.63;11.20;;;;;;;;;;5000996;28;20197;-74
2021/11/10 02:30:36;;;;;;;24.27;11.07;;;;;;;;;;5001662;28;20188;-75
2021/11/10 02:33:03;;;;;;;23.97;10.27;;;;;;;;;;5001900;28;20678;-75
2021/11/10 02:35:29;;;;;;;23.73;10.50;;;;;;;;;;5002088;28;20212;-76
2021/11/10 02:37:59;;;;;;;25.33;10.93;;;;;;;;;;5000884;28;20438;-76
2021/11/10 02:40:24;;;;;;;22.27;11.20;;;;;;;;;;5002680;28;20431;-75
2021/11/10 02:42:50;;;;;;;20.70;10.47;;;;;;;;;;5001163;28;20482;-74
2021/11/10 02:45:15;;;;;;;17.30;9.93;;;;;;;;;;5002411;28;20793;-75
2021/11/10 02:47:42;;;;;;;25.70;10.50;;;;;;;;;;5004402;28;20197;-75
2021/11/10 02:50:07;;;;;;;28.63;11.63;;;;;;;;;;5002513;28;20201;-75
2021/11/10 02:52:32;;;;;;;26.63;11.07;;;;;;;;;;5001890;28;20515;-75
2021/11/10 02:54:58;;;;;;;18.80;9.67;;;;;;;;;;5004932;28;20660;-75
2021/11/10 02:57:25;;;;;;;22.80;9.80;;;;;;;;;;5000810;28;20244;-75
2021/11/10 02:59:50;;;;;;;18.90;11.10;;;;;;;;;;5000228;28;20177;-75
2021/11/10 03:02:22;;;;;;;21.60;9.37;;;;;;;;;;5001374;28;20516;-76
2021/11/10 03:04:48;;;;;;;27.70;11.40;;;;;;;;;;5002853;28;20215;-76
2021/11/10 03:07:14;;;;;;;20.37;9.60;;;;;;;;;;5007883;28;20459;-78
2021/11/10 03:09:39;;;;;;;20.63;9.33;;;;;;;;;;5001831;28;20427;-77
2021/11/10 03:12:05;;;;;;;17.93;10.67;;;;;;;;;;4997603;28;20424;-78
2021/11/10 03:14:32;;;;;;;16.10;9.73;;;;;;;;;;5002869;28;20694;-77
2021/11/10 03:16:57;;;;;;;19.20;10.33;;;;;;;;;;5002925;28;20428;-77
2021/11/10 03:19:23;;;;;;;17.20;9.90;;;;;;;;;;5003486;28;20482;-77
2021/11/10 03:21:48;;;;;;;18.07;10.20;;;;;;;;;;5002774;28;20170;-77
2021/11/10 03:24:14;;;;;;;22.97;10.60;;;;;;;;;;5004185;28;20742;-77
2021/11/10 03:26:40;;;;;;;21.50;9.90;;;;;;;;;;5004824;28;20184;-77
2021/11/10 03:29:05;;;;;;;14.13;8.60;;;;;;;;;;5001822;28;20471;-77
2021/11/10 03:31:32;;;;;;;20.43;9.80;;;;;;;;;;5002927;28;20185;-78
2021/11/10 03:33:59;;;;;;;23.13;9.67;;;;;;;;;;5004721;28;20177;-75
2021/11/10 03:36:24;;;;;;;19.13;9.83;;;;;;;;;;5003763;28;20448;-75
2021/11/10 03:38:50;;;;;;;16.20;9.47;;;;;;;;;;5001943;28;20440;-75
2021/11/10 03:41:15;;;;;;;18.47;9.03;;;;;;;;;;5006380;28;20185;-75
2021/11/10 03:43:40;;;;;;;16.63;9.57;;;;;;;;;;5003601;28;20239;-75
2021/11/10 03:46:05;;;;;;;19.50;9.33;;;;;;;;;;5000311;28;20786;-75
2021/11/10 03:48:31;;;;;;;11.87;8.67;;;;;;;;;;5003092;28;20193;-75
2021/11/10 03:50:56;;;;;;;20.80;9.33;;;;;;;;;;5003123;28;20173;-75
2021/11/10 03:53:21;;;;;;;18.40;8.00;;;;;;;;;;5003188;28;20272;-75
2021/11/10 03:55:47;;;;;;;16.40;8.77;;;;;;;;;;5002932;28;20195;-75
2021/11/10 03:58:13;;;;;;;14.90;8.77;;;;;;;;;;5001006;28;20231;-75
2021/11/10 04:00:38;;;;;;;20.87;9.27;;;;;;;;;;4998021;28;20566;-75
2021/11/10 04:03:03;;;;;;;13.20;8.70;;;;;;;;;;4997452;28;20440;-75
2021/11/10 04:05:28;;;;;;;16.00;8.50;;;;;;;;;;4995976;28;20205;-75
2021/11/10 04:07:54;;;;;;;15.63;8.40;;;;;;;;;;5004382;28;20193;-75
2021/11/10 04:10:20;;;;;;;19.40;9.57;;;;;;;;;;5002617;28;20643;-74
2021/11/10 04:12:45;;;;;;;19.10;8.30;;;;;;;;;;5002564;28;20184;-75
2021/11/10 04:15:10;;;;;;;15.30;8.30;;;;;;;;;;4999433;28;20199;-75
2021/11/10 04:17:35;;;;;;;16.77;8.10;;;;;;;;;;5000899;28;20188;-75
2021/11/10 04:20:01;;;;;;;14.77;7.23;;;;;;;;;;5001724;28;20197;-75
2021/11/10 04:22:26;;;;;;;17.33;8.90;;;;;;;;;;5001137;28;20284;-75
2021/11/10 04:24:52;;;;;;;18.80;8.60;;;;;;;;;;5002141;28;20268;-76
2021/11/10 04:27:20;;;;;;;16.10;8.97;;;;;;;;;;5002789;28;20254;-76
2021/11/10 04:29:49;;;;;;;20.10;9.27;;;;;;;;;;4999831;28;20188;-75
2021/11/10 04:32:15;;;;;;;13.63;8.90;;;;;;;;;;5001446;28;20463;-76
2021/11/10 04:34:40;;;;;;;16.10;8.83;;;;;;;;;;5001161;28;20459;-75
2021/11/10 04:37:06;;;;;;;15.63;9.20;;;;;;;;;;5000864;28;20276;-76
2021/11/10 04:39:32;;;;;;;18.80;9.47;;;;;;;;;;4999809;28;20236;-75
2021/11/10 04:41:57;;;;;;;19.07;9.33;;;;;;;;;;5002392;28;20264;-75
2021/11/10 04:44:23;;;;;;;15.17;9.20;;;;;;;;;;4998068;28;20468;-75
2021/11/10 04:46:49;;;;;;;17.63;9.50;;;;;;;;;;5001201;28;20216;-75
2021/11/10 04:49:16;;;;;;;21.40;9.13;;;;;;;;;;5000992;28;20209;-75
2021/11/10 04:51:41;;;;;;;23.63;10.63;;;;;;;;;;5002751;28;20433;-75
2021/11/10 04:54:08;;;;;;;17.03;9.13;;;;;;;;;;5001908;28;20503;-76
2021/11/10 04:56:37;;;;;;;15.27;9.53;;;;;;;;;;4997448;28;20177;-75
2021/11/10 04:59:03;;;;;;;25.10;9.50;;;;;;;;;;5001940;28;20439;-75
2021/11/10 05:01:28;;;;;;;22.10;9.33;;;;;;;;;;5000438;28;20440;-75
2021/11/10 05:03:54;;;;;;;18.80;9.20;;;;;;;;;;5000230;28;20598;-76
2021/11/10 05:06:20;;;;;;;12.93;9.63;;;;;;;;;;5001213;28;20255;-76
2021/11/10 05:08:46;;;;;;;19.57;9.30;;;;;;;;;;4999137;28;20472;-75
2021/11/10 05:11:11;;;;;;;18.57;9.40;;;;;;;;;;5000095;28;20490;-75
2021/11/10 05:13:37;;;;;;;17.60;9.80;;;;;;;;;;5000952;28;20192;-76
2021/11/10 05:16:02;;;;;;;13.67;8.70;;;;;;;;;;4999706;28;20194;-76
2021/11/10 05:18:27;;;;;;;15.17;9.30;;;;;;;;;;4999860;28;20190;-74
2021/11/10 05:20:52;;;;;;;16.27;9.90;;;;;;;;;;5000301;28;20181;-75
2021/11/10 05:23:18;;;;;;;13.07;8.37;;;;;;;;;;4999861;28;20192;-75
2021/11/10 05:25:43;;;;;;;17.30;9.50;;;;;;;;;;4998378;28;20216;-76
2021/11/10 05:28:08;;;;;;;18.80;10.27;;;;;;;;;;4998979;28;20321;-75
2021/11/10 05:30:36;;;;;;;18.07;10.00;;;;;;;;;;4998544;28;20182;-76
2021/11/10 05:33:01;;;;;;;14.20;9.40;;;;;;;;;;4996979;28;20186;-76
2021/11/10 05:35:27;;;;;;;19.00;10.40;;;;;;;;;;4998403;28;20465;-76
2021/11/10 05:37:52;;;;;;;17.27;9.47;;;;;;;;;;5013313;28;20188;-76
2021/11/10 05:40:17;;;;;;;14.43;9.53;;;;;;;;;;5000262;28;20209;-76
2021/11/10 05:42:42;;;;;;;16.03;9.70;;;;;;;;;;4998707;28;20692;-75
2021/11/10 05:45:08;;;;;;;20.77;11.10;;;;;;;;;;4998705;28;20659;-76
2021/11/10 05:47:33;;;;;;;17.00;9.97;;;;;;;;;;4996805;28;20197;-75
2021/11/10 05:49:59;;;;;;;19.37;9.53;;;;;;;;;;4997326;28;20177;-75
2021/11/10 05:52:24;;;;;;;14.03;10.90;;;;;;;;;;4996414;28;20189;-75
2021/11/10 05:54:49;;;;;;;20.43;10.40;;;;;;;;;;4995510;28;20251;-75
2021/11/10 05:57:15;;;;;;;16.67;10.70;;;;;;;;;;5005377;28;20765;-74
2021/11/10 05:59:41;;;;;;;19.83;11.73;;;;;;;;;;4999718;28;20319;-76
2021/11/10 06:02:07;;;;;;;21.90;10.97;;;;;;;;;;4997156;28;20193;-75
2021/11/10 06:04:32;;;;;;;17.97;10.63;;;;;;;;;;4998006;28;20450;-75
2021/11/10 06:06:57;;;;;;;19.73;12.33;;;;;;;;;;4997085;28;20225;-75
2021/11/10 06:09:22;;;;;;;23.70;12.67;;;;;;;;;;4992068;28;20191;-75
2021/11/10 06:11:48;;;;;;;23.40;11.33;;;;;;;;;;4998357;28;20206;-76
2021/11/10 06:14:13;;;;;;;17.50;11.37;;;;;;;;;;4998292;28;20663;-75
2021/11/10 06:16:39;;;;;;;14.27;11.37;;;;;;;;;;4992186;28;20205;-75
2021/11/10 06:19:04;;;;;;;20.10;11.37;;;;;;;;;;5001249;28;20192;-75
2021/11/10 06:21:29;;;;;;;15.00;10.93;;;;;;;;;;4996297;28;20243;-75
2021/11/10 06:23:55;;;;;;;18.93;12.57;;;;;;;;;;4996618;28;20188;-75
2021/11/10 06:26:20;;;;;;;14.57;10.17;;;;;;;;;;4994564;28;20227;-74
2021/11/10 06:28:45;;;;;;;16.83;10.73;;;;;;;;;;4997005;28;20193;-73
2021/11/10 06:31:11;;;;;;;17.03;11.20;;;;;;;;;;4999411;28;20556;-73
2021/11/10 06:33:36;;;;;;;17.50;11.60;;;;;;;;;;4998137;28;20709;-75
2021/11/10 06:36:02;;;;;;;20.80;12.10;;;;;;;;;;4999055;28;20199;-73
2021/11/10 06:38:28;;;;;;;26.33;11.50;;;;;;;;;;5000457;28;20190;-74
2021/11/10 06:40:53;;;;;;;17.10;10.77;;;;;;;;;;5011533;28;20283;-74
2021/11/10 06:43:18;;;;;;;16.70;11.17;;;;;;;;;;4996563;28;20891;-74
2021/11/10 06:45:43;;;;;;;14.90;11.40;;;;;;;;;;4997473;28;20251;-73
2021/11/10 06:48:09;;;;;;;18.07;10.70;;;;;;;;;;5000296;28;20270;-75
2021/11/10 06:50:34;;;;;;;17.40;11.63;;;;;;;;;;5003102;28;20204;-75
2021/11/10 06:52:59;;;;;;;18.37;11.00;;;;;;;;;;4997572;28;20180;-74
2021/11/10 06:55:25;;;;;;;18.33;11.60;;;;;;;;;;4989880;28;20582;-75
2021/11/10 06:57:50;;;;;;;14.57;10.50;;;;;;;;;;4993917;28;20216;-75
2021/11/10 07:00:16;;;;;;;13.43;10.10;;;;;;;;;;4998990;28;20307;-75
2021/11/10 07:02:42;;;;;;;19.00;9.33;;;;;;;;;;4998314;28;20284;-75
2021/11/10 07:05:07;;;;;;;12.60;9.13;;;;;;;;;;4995356;28;20463;-74
2021/11/10 07:07:33;;;;;;;16.17;10.33;;;;;;;;;;4997606;28;20303;-75
2021/11/10 07:09:58;;;;;;;17.50;10.40;;;;;;;;;;5003321;28;20307;-75
2021/11/10 07:12:23;;;;;;;13.47;9.47;;;;;;;;;;5001574;28;20181;-75
2021/11/10 07:14:49;;;;;;;17.10;9.97;;;;;;;;;;4994184;28;20216;-73
2021/11/10 07:17:14;;;;;;;13.47;9.37;;;;;;;;;;4997695;28;20185;-73
2021/11/10 07:19:39;;;;;;;13.73;9.33;;;;;;;;;;4993995;28;20184;-72
2021/11/10 07:22:05;;;;;;;18.60;9.43;;;;;;;;;;4996889;28;20189;-71
2021/11/10 07:24:30;;;;;;;11.53;9.17;;;;;;;;;;4998375;28;20208;-72
2021/11/10 07:26:56;;;;;;;17.47;9.80;;;;;;;;;;4984143;28;20235;-71
2021/11/10 07:29:21;;;;;;;17.13;10.53;;;;;;;;;;4992070;28;20282;-71
2021/11/10 07:31:47;;;;;;;17.40;8.97;;;;;;;;;;4991533;28;20502;-71
2021/11/10 07:34:12;;;;;;;17.33;9.70;;;;;;;;;;4988808;28;20219;-72
2021/11/10 07:36:37;;;;;;;18.97;11.07;;;;;;;;;;4995583;28;20662;-71
2021/11/10 07:39:03;;;;;;;13.30;10.13;;;;;;;;;;4986353;28;20212;-71
2021/11/10 07:41:31;;;;;;;12.00;8.90;;;;;;;;;;4993072;28;20178;-71
2021/11/10 07:43:57;;;;;;;17.63;9.73;;;;;;;;;;4992421;28;20340;-71
2021/11/10 07:46:24;;;;;;;18.30;9.10;;;;;;;;;;4993505;28;21056;-72
2021/11/10 07:48:50;;;;;;;15.60;9.80;;;;;;;;;;4990473;28;20213;-73
2021/11/10 07:51:19;;;;;;;15.90;10.63;;;;;;;;;;4994963;28;20439;-72
2021/11/10 07:53:44;;;;;;;13.37;9.23;;;;;;;;;;4999851;28;20656;-72
2021/11/10 07:56:09;;;;;;;15.77;9.70;;;;;;;;;;4988969;28;20455;-72
2021/11/10 07:58:38;;;;;;;12.60;8.70;;;;;;;;;;4985922;28;20181;-72
2021/11/10 08:01:03;;;;;;;14.50;9.97;;;;;;;;;;4994830;28;20272;-71
2021/11/10 08:03:28;;;;;;;17.70;10.20;;;;;;;;;;4997291;28;20451;-72
2021/11/10 08:05:56;;;;;;;12.40;9.60;;;;;;;;;;5000268;28;20199;-72
2021/11/10 08:08:21;;;;;;;16.03;10.20;;;;;;;;;;4999860;28;20259;-73
2021/11/10 08:10:47;;;;;;;19.87;10.20;;;;;;;;;;4995803;28;20428;-72
2021/11/10 08:13:12;;;;;;;12.43;9.67;;;;;;;;;;4998505;28;20177;-72
2021/11/10 08:15:37;;;;;;;12.40;9.73;;;;;;;;;;4996549;28;20734;-73
2021/11/10 08:18:03;;;;;;;16.67;10.77;;;;;;;;;;5000479;28;20217;-72
2021/11/10 08:20:29;;;;;;;17.20;10.80;;;;;;;;;;4997577;28;20189;-73
2021/11/10 08:22:54;;;;;;;11.57;9.73;;;;;;;;;;4997096;28;20433;-73
2021/11/10 08:25:19;;;;;;;16.40;11.07;;;;;;;;;;4996563;28;20300;-73
2021/11/10 08:27:45;;;;;;;18.77;11.87;;;;;;;;;;5002183;28;20213;-76
2021/11/10 08:30:12;;;;;;;14.83;11.57;;;;;;;;;;4999924;28;20181;-76
2021/11/10 08:32:38;;;;;;;15.23;11.60;;;;;;;;;;4999719;28;20431;-76
2021/11/10 08:35:03;;;;;;;17.37;12.10;;;;;;;;;;4997795;28;20444;-76
2021/11/10 08:37:31;;;;;;;15.63;10.97;;;;;;;;;;4994180;28;20188;-76
2021/11/10 08:39:56;;;;;;;17.20;11.50;;;;;;;;;;4997994;28;20178;-76
2021/11/10 08:42:21;;;;;;;17.80;12.53;;;;;;;;;;4996957;28;20959;-76
2021/11/10 08:44:51;;;;;;;20.10;11.60;;;;;;;;;;5000077;28;20275;-76
2021/11/10 08:47:17;;;;;;;17.57;12.97;;;;;;;;;;4993441;28;20297;-77
2021/11/10 08:49:42;;;;;;;18.37;13.93;;;;;;;;;;4995813;28;21103;-76
2021/11/10 08:52:08;;;;;;;17.57;13.27;;;;;;;;;;4997410;28;20522;-77
2021/11/10 08:54:34;;;;;;;16.70;12.10;;;;;;;;;;4998170;28;20279;-77
2021/11/10 08:56:59;;;;;;;15.90;12.33;;;;;;;;;;4997635;28;20181;-77
2021/11/10 08:59:24;;;;;;;17.53;12.13;;;;;;;;;;4996526;28;20187;-74
2021/11/10 09:01:54;;;;;;;16.97;11.50;;;;;;;;;;4992013;28;20185;-75
2021/11/10 09:04:20;;;;;;;15.87;12.27;;;;;;;;;;4999828;28;20331;-74
2021/11/10 09:06:46;;;;;;;17.53;12.03;;;;;;;;;;4988533;28;20440;-76
2021/11/10 09:09:12;;;;;;;13.47;11.50;;;;;;;;;;4993765;28;20969;-76
2021/11/10 09:11:37;;;;;;;15.80;12.50;;;;;;;;;;4998859;28;20184;-76
2021/11/10 09:14:03;;;;;;;16.57;12.40;;;;;;;;;;4987506;28;20429;-76
2021/11/10 09:16:28;;;;;;;14.00;11.33;;;;;;;;;;5000331;28;20855;-76
2021/11/10 09:18:53;;;;;;;15.07;11.50;;;;;;;;;;4998071;28;20208;-76
2021/11/10 09:21:19;;;;;;;13.60;11.23;;;;;;;;;;5000636;28;20218;-76
2021/11/10 09:23:44;;;;;;;13.67;11.67;;;;;;;;;;4998148;28;20184;-76
2021/11/10 09:26:09;;;;;;;17.20;12.57;;;;;;;;;;4988749;28;20585;-76
2021/11/10 09:28:36;;;;;;;16.17;11.50;;;;;;;;;;4986858;28;20208;-76
2021/11/10 09:31:02;;;;;;;14.10;10.63;;;;;;;;;;4985191;28;20197;-76
2021/11/10 09:33:27;;;;;;;15.60;11.67;;;;;;;;;;4991976;28;20992;-75
2021/11/10 09:35:53;;;;;;;17.10;10.43;;;;;;;;;;4995525;28;20483;-76
2021/11/10 09:38:19;;;;;;;17.77;11.40;;;;;;;;;;4994748;28;20196;-75
2021/11/10 09:40:45;;;;;;;14.63;10.83;;;;;;;;;;4992555;28;20212;-75
2021/11/10 09:43:10;;;;;;;19.67;13.00;;;;;;;;;;4999703;28;20285;-75
2021/11/10 09:45:36;;;;;;;17.77;13.17;;;;;;;;;;4995172;28;20551;-75
2021/11/10 09:48:05;;;;;;;15.40;12.67;;;;;;;;;;4997037;28;20199;-76
2021/11/10 09:50:31;;;;;;;14.20;11.70;;;;;;;;;;4995858;28;20193;-75
2021/11/10 09:52:58;;;;;;;15.63;10.70;;;;;;;;;;4997366;28;20463;-75
2021/11/10 09:55:24;;;;;;;17.60;11.17;;;;;;;;;;4999345;28;20451;-74
2021/11/10 09:57:51;;;;;;;20.90;13.00;;;;;;;;;;4991367;28;20440;-73
2021/11/10 10:00:18;;;;;;;17.70;12.30;;;;;;;;;;4995932;28;20447;-77
2021/11/10 10:02:48;;;;;;;20.47;13.13;;;;;;;;;;4990887;28;20437;-75
2021/11/10 10:05:14;;;;;;;23.43;12.90;;;;;;;;;;5000302;28;20483;-74
2021/11/10 10:07:42;;;;;;;15.60;11.70;;;;;;;;;;4999940;28;21074;-74
2021/11/10 10:10:07;;;;;;;17.80;12.40;;;;;;;;;;4999895;28;20914;-75
2021/11/10 10:12:33;;;;;;;16.43;12.57;;;;;;;;;;4999574;28;20424;-75
2021/11/10 10:14:58;;;;;;;15.90;11.63;;;;;;;;;;5002088;28;20197;-74
2021/11/10 10:17:37;;;;;;;16.67;11.57;;;;;;;;;;4999510;28;20185;-74
2021/11/10 10:20:03;;;;;;;19.47;11.63;;;;;;;;;;5004874;28;20281;-75
2021/11/10 10:22:29;;;;;;;16.23;11.70;;;;;;;;;;4996650;28;20498;-75
2021/11/10 10:24:58;;;;;;;19.73;12.20;;;;;;;;;;4989075;28;21081;-74
2021/11/10 10:27:31;;;;;;;18.93;11.63;;;;;;;;;;4996933;28;20224;-75
2021/11/10 10:30:14;;;;;;;15.40;12.10;;;;;;;;;;5000870;28;20435;-75
2021/11/10 10:32:40;;;;;;;16.80;11.37;;;;;;;;;;5000347;28;22278;-75
2021/11/10 10:35:25;;;;;;;16.10;12.53;;;;;;;;;;4997497;28;20445;-75
2021/11/10 10:37:51;;;;;;;17.63;10.93;;;;;;;;;;4996893;28;20264;-75
2021/11/10 10:40:16;;;;;;;15.70;11.93;;;;;;;;;;4999264;28;20990;-77
2021/11/10 10:42:42;;;;;;;18.03;12.03;;;;;;;;;;5000622;28;20181;-75
2021/11/10 10:45:24;;;;;;;18.83;11.60;;;;;;;;;;4995012;28;20204;-75
2021/11/10 10:47:56;;;;;;;20.00;12.03;;;;;;;;;;5000456;28;20959;-75
2021/11/10 10:50:31;;;;;;;16.50;11.60;;;;;;;;;;5000164;28;20954;-75
2021/11/10 10:52:57;;;;;;;16.40;12.63;;;;;;;;;;4997896;28;20855;-75
2021/11/10 10:55:40;;;;;;;17.37;11.67;;;;;;;;;;4997520;28;20517;-75
2021/11/10 10:58:07;;;;;;;15.00;12.10;;;;;;;;;;4999509;28;20192;-74
2021/11/10 11:00:33;;;;;;;15.93;11.60;;;;;;;;;;4998368;28;20505;-75
2021/11/10 11:03:17;;;;;;;18.20;11.33;;;;;;;;;;4999661;28;21146;-75
2021/11/10 11:05:42;;;;;;;17.03;11.57;;;;;;;;;;4995939;28;20478;-75
2021/11/10 11:08:27;;;;;;;15.97;10.80;;;;;;;;;;5000555;28;20467;-74
2021/11/10 11:10:54;;;;;;;18.27;12.00;;;;;;;;;;4999995;28;20188;-75
2021/11/10 11:13:24;;;;;;;17.83;11.90;;;;;;;;;;5000626;28;20437;-75
2021/11/10 11:16:03;;;;;;;14.50;10.40;;;;;;;;;;5000449;28;20511;-74
2021/11/10 11:18:28;;;;;;;17.13;11.83;;;;;;;;;;5002801;28;20994;-75
2021/11/10 11:20:53;;;;;;;19.57;11.90;;;;;;;;;;5005216;28;20538;-74
2021/11/10 11:23:19;;;;;;;18.73;10.87;;;;;;;;;;4997699;28;20287;-75
2021/11/10 11:25:44;;;;;;;19.77;11.67;;;;;;;;;;4993299;28;20208;-75
2021/11/10 11:28:13;;;;;;;16.30;11.73;;;;;;;;;;4992937;28;20210;-74
2021/11/10 11:30:57;;;;;;;17.53;10.50;;;;;;;;;;4999944;28;20178;-75
2021/11/10 11:33:23;;;;;;;14.77;9.50;;;;;;;;;;5000299;28;21136;-75
2021/11/10 11:35:58;;;;;;;20.23;10.63;;;;;;;;;;5000976;28;20447;-76
2021/11/10 11:38:25;;;;;;;16.57;10.70;;;;;;;;;;5000846;28;20438;-75
2021/11/10 11:40:52;;;;;;;20.07;11.47;;;;;;;;;;5001953;28;20452;-75
2021/11/10 11:43:18;;;;;;;17.33;11.03;;;;;;;;;;5002712;28;20445;-75
2021/11/10 11:45:45;;;;;;;19.53;11.10;;;;;;;;;;5002537;28;20490;-76
2021/11/10 11:48:11;;;;;;;15.07;9.97;;;;;;;;;;5001700;28;20543;-76
2021/11/10 11:50:36;;;;;;;17.90;11.70;;;;;;;;;;5000947;28;20447;-75
2021/11/10 11:53:02;;;;;;;13.93;10.47;;;;;;;;;;5001582;28;20232;-76
2021/11/10 11:55:30;;;;;;;22.40;11.80;;;;;;;;;;5001824;28;20620;-75
2021/11/10 11:58:07;;;;;;;18.23;11.97;;;;;;;;;;5002054;28;20580;-75
2021/11/10 12:00:43;;;;;;;18.87;10.60;;;;;;;;;;5001169;28;20817;-75
2021/11/10 12:03:34;;;;;;;15.00;10.97;;;;;;;;;;4995264;28;21370;-75
2021/11/10 12:06:02;;;;;;;15.80;10.33;;;;;;;;;;4990284;28;20463;-75
2021/11/10 12:08:46;;;;;;;19.23;11.83;;;;;;;;;;4998985;28;20469;-75
2021/11/10 12:11:20;;;;;;;16.93;10.30;;;;;;;;;;5000664;28;20432;-75
2021/11/10 12:14:04;;;;;;;20.70;10.53;;;;;;;;;;4999824;28;20462;-75
2021/11/10 12:16:29;;;;;;;19.43;10.10;;;;;;;;;;4997681;28;20441;-76
2021/11/10 12:18:56;;;;;;;20.77;11.80;;;;;;;;;;4996782;28;20443;-75
2021/11/10 12:21:29;;;;;;;17.60;10.80;;;;;;;;;;4997583;28;20205;-76
2021/11/10 12:23:55;;;;;;;22.37;10.47;;;;;;;;;;4989727;28;20522;-75
2021/11/10 12:26:21;;;;;;;20.00;11.07;;;;;;;;;;4992269;28;20470;-75
2021/11/10 12:28:57;;;;;;;17.60;11.20;;;;;;;;;;4997547;28;20205;-76
2021/11/10 12:31:42;;;;;;;20.70;10.80;;;;;;;;;;4998860;28;20484;-75
2021/11/10 12:34:13;;;;;;;19.37;10.80;;;;;;;;;;4998269;28;20792;-75
2021/11/10 12:36:47;;;;;;;22.63;12.20;;;;;;;;;;4998727;28;20452;-74
2021/11/10 12:39:12;;;;;;;19.10;11.80;;;;;;;;;;4995476;28;20429;-75
2021/11/10 12:41:47;;;;;;;18.00;11.40;;;;;;;;;;4995860;28;20432;-74
2021/11/10 12:44:22;;;;;;;17.90;11.10;;;;;;;;;;5000401;28;20187;-76
2021/11/10 12:46:51;;;;;;;24.33;12.53;;;;;;;;;;4996761;28;20933;-75
2021/11/10 12:49:16;;;;;;;19.00;11.03;;;;;;;;;;4993770;28;20788;-75
2021/11/10 12:51:42;;;;;;;23.00;11.90;;;;;;;;;;4995247;28;20436;-76
2021/11/10 12:54:20;;;;;;;17.33;10.90;;;;;;;;;;4999975;28;20184;-75
2021/11/10 12:56:47;;;;;;;23.20;11.10;;;;;;;;;;5001015;28;20183;-76
2021/11/10 12:59:23;;;;;;;26.17;12.00;;;;;;;;;;4999824;28;20506;-76
2021/11/10 13:01:49;;;;;;;14.23;10.73;;;;;;;;;;4995018;28;20912;-75
2021/11/10 13:04:19;;;;;;;20.83;11.13;;;;;;;;;;4999866;28;20441;-76
2021/11/10 13:06:46;;;;;;;22.23;11.00;;;;;;;;;;4999847;28;20185;-76
2021/11/10 13:09:54;;;;;;;19.87;11.87;;;;;;;;;;4997990;28;20471;-76
2021/11/10 13:12:00;;;;;;;22.47;12.67;;;;;;;;;;4988230;28;20511;-75
2021/11/10 13:14:26;;;;;;;23.67;12.60;;;;;;;;;;4997418;28;21047;-76
2021/11/10 13:16:58;;;;;;;20.43;12.20;;;;;;;;;;4991201;28;20173;-76
2021/11/10 13:19:35;;;;;;;24.83;13.90;;;;;;;;;;4995612;28;20463;-76
2021/11/10 13:22:01;;;;;;;25.57;12.77;;;;;;;;;;4996853;28;20413;-75
2021/11/10 13:24:27;;;;;;;25.73;12.83;;;;;;;;;;4988561;28;20963;-76
2021/11/10 13:26:52;;;;;;;23.93;13.03;;;;;;;;;;4991900;28;20193;-76
2021/11/10 13:29:18;;;;;;;22.00;11.67;;;;;;;;;;5000713;28;20479;-76
2021/11/10 13:31:43;;;;;;;20.87;12.33;;;;;;;;;;4993279;28;20332;-75
2021/11/10 13:34:08;;;;;;;21.60;12.20;;;;;;;;;;4996475;28;20193;-75
2021/11/10 13:36:35;;;;;;;17.57;12.20;;;;;;;;;;4998388;28;20239;-75
2021/11/10 13:39:09;;;;;;;25.13;12.70;;;;;;;;;;4993625;28;20551;-75
2021/11/10 13:41:46;;;;;;;18.73;12.03;;;;;;;;;;4995355;28;20475;-76
2021/11/10 13:44:24;;;;;;;22.43;12.63;;;;;;;;;;4997103;28;20433;-75
2021/11/10 13:46:49;;;;;;;20.93;12.10;;;;;;;;;;4993594;28;21345;-76
2021/11/10 13:49:21;;;;;;;20.90;11.50;;;;;;;;;;4998330;28;20469;-76
2021/11/10 13:51:58;;;;;;;21.47;11.50;;;;;;;;;;4995470;28;20223;-74
2021/11/10 13:54:25;;;;;;;25.10;12.40;;;;;;;;;;4997125;28;20456;-76
2021/11/10 13:56:50;;;;;;;25.90;13.00;;;;;;;;;;4997471;28;20872;-76
2021/11/10 13:59:26;;;;;;;30.70;13.00;;;;;;;;;;4999300;28;20459;-76
2021/11/10 14:01:53;;;;;;;33.20;13.97;;;;;;;;;;4995251;28;20186;-75
2021/11/10 14:04:19;;;;;;;27.47;13.20;;;;;;;;;;4995749;28;20503;-76
2021/11/10 14:07:00;;;;;;;22.47;12.27;;;;;;;;;;4998505;28;21853;-76
2021/11/10 14:09:25;;;;;;;22.30;12.97;;;;;;;;;;4998094;28;20506;-76
2021/11/10 14:11:50;;;;;;;24.30;11.80;;;;;;;;;;4994009;28;21984;-76
2021/11/10 14:14:30;;;;;;;24.57;12.17;;;;;;;;;;4999393;28;20402;-76
2021/11/10 14:16:56;;;;;;;24.13;12.17;;;;;;;;;;4997354;28;20182;-76
2021/11/10 14:19:21;;;;;;;23.20;11.00;;;;;;;;;;4995465;28;20920;-76